createdAt,value
2018-05-08T02:15:24.814Z,51.45
2018-05-08T02:15:25.321Z,51.54
2018-05-08T02:15:25.922Z,51.25
2018-05-08T02:15:26.520Z,51.54
2018-05-08T02:15:27.120Z,51.54
2018-05-08T02:15:27.719Z,51.45
2018-05-08T02:15:28.320Z,51.35
2018-05-08T02:16:21.776Z,53.92
2018-05-08T02:16:22.375Z,53.64
2018-05-08T02:16:22.974Z,53.64
2018-05-08T02:16:23.570Z,53.54
2018-05-08T02:16:24.170Z,53.35
2018-05-08T02:16:24.771Z,53.35
2018-05-08T02:16:25.369Z,53.44
2018-05-08T02:16:25.969Z,53.54
2018-05-08T02:17:19.458Z,51.35
2018-05-08T02:17:20.026Z,51.25
2018-05-08T02:17:20.623Z,51.25
2018-05-08T02:17:21.222Z,51.54
2018-05-08T02:17:21.821Z,51.54
2018-05-08T02:17:22.422Z,51.64
2018-05-08T02:17:23.021Z,51.92
2018-05-08T02:17:23.624Z,51.82
2018-05-08T02:18:17.081Z,51.25
2018-05-08T02:18:17.676Z,51.25
2018-05-08T02:18:18.274Z,51.06
2018-05-08T02:18:18.875Z,50.78
2018-05-08T02:18:19.475Z,50.87
2018-05-08T02:18:20.072Z,50.97
2018-05-08T02:18:20.674Z,50.68
2018-05-08T02:18:21.274Z,50.78
2018-05-08T02:19:15.753Z,49.35
2018-05-08T02:19:16.354Z,49.16
2018-05-08T02:19:16.949Z,49.06
2018-05-08T02:19:17.550Z,48.87
2018-05-08T02:19:18.148Z,49.06
2018-05-08T02:19:18.749Z,48.58
2018-05-08T02:19:19.348Z,48.58
2018-05-08T02:19:19.949Z,48.49
2018-05-08T02:20:14.548Z,46.97
2018-05-08T02:20:15.038Z,47.06
2018-05-08T02:20:15.634Z,47.06
2018-05-08T02:20:16.231Z,46.97
2018-05-08T02:20:16.838Z,47.06
2018-05-08T02:20:17.458Z,47.06
2018-05-08T02:20:18.032Z,46.87
2018-05-08T02:20:18.680Z,46.97
2018-05-08T02:21:12.084Z,51.54
2018-05-08T02:21:12.678Z,51.73
2018-05-08T02:21:13.281Z,51.92
2018-05-08T02:21:13.877Z,52.01
2018-05-08T02:21:14.477Z,51.82
2018-05-08T02:21:15.078Z,52.01
2018-05-08T02:21:15.678Z,51.82
2018-05-08T02:21:16.278Z,51.92
2018-05-08T02:22:10.758Z,50.49
2018-05-08T02:22:11.355Z,50.21
2018-05-08T02:22:11.956Z,50.21
2018-05-08T02:22:12.554Z,50.21
2018-05-08T02:22:13.154Z,50.40
2018-05-08T02:22:13.757Z,50.01
2018-05-08T02:22:14.356Z,50.21
2018-05-08T02:22:14.954Z,50.11
2018-05-08T02:23:08.447Z,50.78
2018-05-08T02:23:09.005Z,50.78
2018-05-08T02:23:09.605Z,50.87
2018-05-08T02:23:10.205Z,50.97
2018-05-08T02:23:10.804Z,50.87
2018-05-08T02:23:11.405Z,50.87
2018-05-08T02:23:12.004Z,50.78
2018-05-08T02:23:12.605Z,50.97
2018-05-08T02:24:06.063Z,50.01
2018-05-08T02:24:06.659Z,50.30
2018-05-08T02:24:07.260Z,50.01
2018-05-08T02:24:07.861Z,50.11
2018-05-08T02:24:08.457Z,50.21
2018-05-08T02:24:09.058Z,50.11
2018-05-08T02:24:09.657Z,49.92
2018-05-08T02:24:10.257Z,49.92
2018-05-08T02:25:04.739Z,49.26
2018-05-08T02:25:05.334Z,49.35
2018-05-08T02:25:05.933Z,49.35
2018-05-08T02:25:06.535Z,49.26
2018-05-08T02:25:07.135Z,49.35
2018-05-08T02:25:07.733Z,49.35
2018-05-08T02:25:08.332Z,49.26
2018-05-08T02:25:08.934Z,49.06
2018-05-08T02:26:02.395Z,46.58
2018-05-08T02:26:02.988Z,46.20
2018-05-08T02:26:03.586Z,46.30
2018-05-08T02:26:04.187Z,46.20
2018-05-08T02:26:04.785Z,46.11
2018-05-08T02:26:05.384Z,46.01
2018-05-08T02:26:05.991Z,46.11
2018-05-08T02:26:06.589Z,46.20
2018-05-08T02:27:00.042Z,46.58
2018-05-08T02:27:00.638Z,46.58
2018-05-08T02:27:01.268Z,46.58
2018-05-08T02:27:01.837Z,46.80
2018-05-08T02:27:02.437Z,46.87
2018-05-08T02:27:03.038Z,46.68
2018-05-08T02:27:03.640Z,46.68
2018-05-08T02:27:04.235Z,46.87
2018-05-08T02:27:57.698Z,45.63
2018-05-08T02:27:58.291Z,45.63
2018-05-08T02:27:58.890Z,45.35
2018-05-08T02:27:59.490Z,45.47
2018-05-08T02:28:00.092Z,45.35
2018-05-08T02:28:00.689Z,45.83
2018-05-08T02:28:01.296Z,45.25
2018-05-08T02:28:01.892Z,45.44
2018-05-08T02:28:55.374Z,47.25
2018-05-08T02:28:55.942Z,47.44
2018-05-08T02:28:56.542Z,47.73
2018-05-08T02:28:57.144Z,47.73
2018-05-08T02:28:57.742Z,47.63
2018-05-08T02:28:58.341Z,47.54
2018-05-08T02:28:58.943Z,48.11
2018-05-08T02:28:59.543Z,48.02
2018-05-08T02:30:05.695Z,50.99
2018-05-08T02:30:06.292Z,51.25
2018-05-08T02:30:06.889Z,51.25
2018-05-08T02:30:07.491Z,51.35
2018-05-08T02:30:08.093Z,51.16
2018-05-08T02:30:08.690Z,51.16
2018-05-08T02:30:09.290Z,51.54
2018-05-08T02:30:09.892Z,51.45
2018-05-08T02:31:03.348Z,51.56
2018-05-08T02:31:03.945Z,51.45
2018-05-08T02:31:04.552Z,51.37
2018-05-08T02:31:05.143Z,51.47
2018-05-08T02:31:05.743Z,51.06
2018-05-08T02:31:06.355Z,50.97
2018-05-08T02:31:06.948Z,50.87
2018-05-08T02:31:07.542Z,50.99
2018-05-08T02:32:00.998Z,51.09
2018-05-08T02:32:01.596Z,50.99
2018-05-08T02:32:02.197Z,51.09
2018-05-08T02:32:02.796Z,50.99
2018-05-08T02:32:03.395Z,50.99
2018-05-08T02:32:04.001Z,50.99
2018-05-08T02:32:04.598Z,50.99
2018-05-08T02:32:05.196Z,50.99
2018-05-08T02:32:59.673Z,49.28
2018-05-08T02:33:00.272Z,49.37
2018-05-08T02:33:00.881Z,49.47
2018-05-08T02:33:01.472Z,49.56
2018-05-08T02:33:02.068Z,48.90
2018-05-08T02:33:02.666Z,48.90
2018-05-08T02:33:03.267Z,49.28
2018-05-08T02:33:03.870Z,49.28
2018-05-08T02:33:57.362Z,49.66
2018-05-08T02:33:57.921Z,49.76
2018-05-08T02:33:58.521Z,49.66
2018-05-08T02:33:59.120Z,49.66
2018-05-08T02:33:59.721Z,49.66
2018-05-08T02:34:00.320Z,49.66
2018-05-08T02:34:00.920Z,49.56
2018-05-08T02:34:01.522Z,49.66
2018-05-08T02:34:56.002Z,48.23
2018-05-08T02:34:56.597Z,48.32
2018-05-08T02:34:57.198Z,48.42
2018-05-08T02:34:57.874Z,48.32
2018-05-08T02:34:58.397Z,48.23
2018-05-08T02:34:58.997Z,48.23
2018-05-08T02:34:59.602Z,48.32
2018-05-08T02:35:00.197Z,48.13
2018-05-08T02:35:54.676Z,50.99
2018-05-08T02:35:55.274Z,51.18
2018-05-08T02:35:55.873Z,50.80
2018-05-08T02:35:56.472Z,50.71
2018-05-08T02:35:57.073Z,50.80
2018-05-08T02:35:57.674Z,50.90
2018-05-08T02:35:58.281Z,50.90
2018-05-08T02:35:58.873Z,50.90
2018-05-08T02:36:53.356Z,53.19
2018-05-08T02:36:53.949Z,53.19
2018-05-08T02:36:54.549Z,53.00
2018-05-08T02:36:55.151Z,53.38
2018-05-08T02:36:55.749Z,53.28
2018-05-08T02:36:56.351Z,53.38
2018-05-08T02:36:56.954Z,53.19
2018-05-08T02:36:57.551Z,53.28
2018-05-08T02:37:52.031Z,54.43
2018-05-08T02:37:52.624Z,54.33
2018-05-08T02:37:53.226Z,54.52
2018-05-08T02:37:53.825Z,54.52
2018-05-08T02:37:54.425Z,54.43
2018-05-08T02:37:55.028Z,54.24
2018-05-08T02:37:55.626Z,54.43
2018-05-08T02:37:56.223Z,54.43
2018-05-08T02:38:49.682Z,54.33
2018-05-08T02:38:50.278Z,54.43
2018-05-08T02:38:50.877Z,54.33
2018-05-08T02:38:51.479Z,54.52
2018-05-08T02:38:52.078Z,54.61
2018-05-08T02:38:52.678Z,54.33
2018-05-08T02:38:53.278Z,54.33
2018-05-08T02:38:53.878Z,54.33
2018-05-08T02:39:48.384Z,56.33
2018-05-08T02:39:48.952Z,56.43
2018-05-08T02:39:49.552Z,55.95
2018-05-08T02:39:50.154Z,55.66
2018-05-08T02:39:50.752Z,55.47
2018-05-08T02:39:51.352Z,55.47
2018-05-08T02:39:51.955Z,55.47
2018-05-08T02:39:52.551Z,55.09
2018-05-08T02:40:47.033Z,53.66
2018-05-08T02:40:47.630Z,53.56
2018-05-08T02:40:48.228Z,53.66
2018-05-08T02:40:48.827Z,53.56
2018-05-08T02:40:49.428Z,53.56
2018-05-08T02:40:50.028Z,53.56
2018-05-08T02:40:50.628Z,53.47
2018-05-08T02:40:51.227Z,53.66
2018-05-08T02:43:23.545Z,55.00
2018-05-08T02:43:24.139Z,55.09
2018-05-08T02:43:24.744Z,55.09
2018-05-08T02:43:25.341Z,55.09
2018-05-08T02:43:25.940Z,55.09
2018-05-08T02:43:26.538Z,55.28
2018-05-08T02:43:27.142Z,55.19
2018-05-08T02:43:27.743Z,55.28
2018-05-08T02:43:28.341Z,55.19
2018-05-08T02:43:28.942Z,55.09
2018-05-08T02:45:01.526Z,55.19
2018-05-08T02:45:02.094Z,55.09
2018-05-08T02:45:02.693Z,55.00
2018-05-08T02:45:03.295Z,55.19
2018-05-08T02:45:03.894Z,55.09
2018-05-08T02:45:04.493Z,55.09
2018-05-08T02:45:05.096Z,55.28
2018-05-08T02:45:05.694Z,55.19
2018-05-08T02:45:06.293Z,55.28
2018-05-08T02:45:06.893Z,55.19
2018-05-08T02:45:07.493Z,55.28
2018-05-08T02:46:02.025Z,55.00
2018-05-08T02:46:02.613Z,55.09
2018-05-08T02:46:03.224Z,55.00
2018-05-08T02:46:03.817Z,55.00
2018-05-08T02:46:04.415Z,55.09
2018-05-08T02:46:05.012Z,55.00
2018-05-08T02:46:05.614Z,55.09
2018-05-08T02:46:06.214Z,55.09
2018-05-08T02:46:59.669Z,53.56
2018-05-08T02:47:00.266Z,53.56
2018-05-08T02:47:00.869Z,53.47
2018-05-08T02:47:01.469Z,53.09
2018-05-08T02:47:02.065Z,53.09
2018-05-08T02:47:02.666Z,53.09
2018-05-08T02:47:03.267Z,53.47
2018-05-08T02:47:03.864Z,53.09
2018-05-08T02:47:57.321Z,52.42
2018-05-08T02:47:57.918Z,52.14
2018-05-08T02:47:58.517Z,52.42
2018-05-08T02:47:59.118Z,52.52
2018-05-08T02:47:59.717Z,52.90
2018-05-08T02:48:00.317Z,52.92
2018-05-08T02:48:00.918Z,52.80
2018-05-08T02:48:01.521Z,52.61
2018-05-08T02:48:55.996Z,55.09
2018-05-08T02:48:56.593Z,55.00
2018-05-08T02:48:57.192Z,54.93
2018-05-08T02:48:57.795Z,54.83
2018-05-08T02:48:58.398Z,55.02
2018-05-08T02:48:58.992Z,54.80
2018-05-08T02:48:59.596Z,54.80
2018-05-08T02:49:00.192Z,54.83
2018-05-08T02:49:54.699Z,56.55
2018-05-08T02:49:55.273Z,56.55
2018-05-08T02:49:55.872Z,56.65
2018-05-08T02:49:56.469Z,56.36
2018-05-08T02:49:57.069Z,56.74
2018-05-08T02:49:57.670Z,56.55
2018-05-08T02:49:58.266Z,56.26
2018-05-08T02:49:58.867Z,56.46
2018-05-08T02:50:52.325Z,57.41
2018-05-08T02:50:52.923Z,57.41
2018-05-08T02:50:53.527Z,57.22
2018-05-08T02:50:54.122Z,56.84
2018-05-08T02:50:54.723Z,57.12
2018-05-08T02:50:55.322Z,57.12
2018-05-08T02:50:55.921Z,57.12
2018-05-08T02:50:56.527Z,57.22
2018-05-08T02:51:50.998Z,58.36
2018-05-08T02:51:51.603Z,58.36
2018-05-08T02:51:52.196Z,58.46
2018-05-08T02:51:52.796Z,58.55
2018-05-08T02:51:53.395Z,58.65
2018-05-08T02:51:53.999Z,58.46
2018-05-08T02:51:54.602Z,58.46
2018-05-08T02:51:55.196Z,58.17
2018-05-08T02:52:48.667Z,58.07
2018-05-08T02:52:49.246Z,58.07
2018-05-08T02:52:49.850Z,57.50
2018-05-08T02:52:50.448Z,57.31
2018-05-08T02:52:51.047Z,57.60
2018-05-08T02:52:51.647Z,57.22
2018-05-08T02:52:52.249Z,57.12
2018-05-08T02:52:52.847Z,57.50
2018-05-08T02:53:46.303Z,56.46
2018-05-08T02:53:46.907Z,56.46
2018-05-08T02:53:47.502Z,56.46
2018-05-08T02:53:48.101Z,56.07
2018-05-08T02:53:48.702Z,56.26
2018-05-08T02:53:49.300Z,56.07
2018-05-08T02:53:49.900Z,55.98
2018-05-08T02:53:50.499Z,56.07
2018-05-08T02:54:45.007Z,55.60
2018-05-08T02:54:45.576Z,55.60
2018-05-08T02:54:46.177Z,55.60
2018-05-08T02:54:46.773Z,55.41
2018-05-08T02:54:47.374Z,55.21
2018-05-08T02:54:47.975Z,55.31
2018-05-08T02:54:48.579Z,55.41
2018-05-08T02:54:49.174Z,55.41
2018-05-08T02:55:43.658Z,58.36
2018-05-08T02:55:44.260Z,58.36
2018-05-08T02:55:44.858Z,58.26
2018-05-08T02:55:45.450Z,58.36
2018-05-08T02:55:46.051Z,58.46
2018-05-08T02:55:46.651Z,58.36
2018-05-08T02:55:47.251Z,58.17
2018-05-08T02:55:47.851Z,58.26
2018-05-08T02:56:42.334Z,55.41
2018-05-08T02:56:42.927Z,55.31
2018-05-08T02:56:43.527Z,55.41
2018-05-08T02:56:44.128Z,55.41
2018-05-08T02:56:44.728Z,55.41
2018-05-08T02:56:45.326Z,55.41
2018-05-08T02:56:45.935Z,55.50
2018-05-08T02:56:46.526Z,55.41
2018-05-08T02:57:41.014Z,56.46
2018-05-08T02:57:41.604Z,56.26
2018-05-08T02:57:42.204Z,56.36
2018-05-08T02:57:42.802Z,56.36
2018-05-08T02:57:43.403Z,56.07
2018-05-08T02:57:44.001Z,56.17
2018-05-08T02:57:44.603Z,56.17
2018-05-08T02:57:45.202Z,55.98
2018-05-08T02:58:38.658Z,57.79
2018-05-08T02:58:39.261Z,58.07
2018-05-08T02:58:39.919Z,57.98
2018-05-08T02:58:40.456Z,57.60
2018-05-08T02:58:41.053Z,57.89
2018-05-08T02:58:41.657Z,57.98
2018-05-08T02:58:42.255Z,57.89
2018-05-08T02:58:42.853Z,57.98
2018-05-08T02:59:37.359Z,58.65
2018-05-08T02:59:37.931Z,58.75
2018-05-08T02:59:38.532Z,58.55
2018-05-08T02:59:39.129Z,58.94
2018-05-08T02:59:39.728Z,58.75
2018-05-08T02:59:40.328Z,58.75
2018-05-08T02:59:40.930Z,58.84
2018-05-08T02:59:41.528Z,58.75
2018-05-08T03:00:36.008Z,57.31
2018-05-08T03:00:36.606Z,57.22
2018-05-08T03:00:37.204Z,57.22
2018-05-08T03:00:37.805Z,57.41
2018-05-08T03:00:38.405Z,57.41
2018-05-08T03:00:39.007Z,57.31
2018-05-08T03:00:39.612Z,57.22
2018-05-08T03:00:40.205Z,56.93
2018-05-08T03:01:34.683Z,59.51
2018-05-08T03:01:35.287Z,59.41
2018-05-08T03:01:35.888Z,59.99
2018-05-08T03:01:36.480Z,59.70
2018-05-08T03:01:37.080Z,59.31
2018-05-08T03:01:37.683Z,59.60
2018-05-08T03:01:38.287Z,59.41
2018-05-08T03:01:38.879Z,59.89
2018-05-08T03:02:32.338Z,59.12
2018-05-08T03:02:32.993Z,59.60
2018-05-08T03:02:33.533Z,59.60
2018-05-08T03:02:34.136Z,59.60
2018-05-08T03:02:34.734Z,59.51
2018-05-08T03:02:35.334Z,59.51
2018-05-08T03:02:35.936Z,59.41
2018-05-08T03:02:36.531Z,59.41
2018-05-08T03:03:29.990Z,60.46
2018-05-08T03:03:30.587Z,60.55
2018-05-08T03:03:31.186Z,60.17
2018-05-08T03:03:31.785Z,60.36
2018-05-08T03:03:32.385Z,60.65
2018-05-08T03:03:32.986Z,60.46
2018-05-08T03:03:33.587Z,60.65
2018-05-08T03:03:34.189Z,60.65
2018-05-08T03:04:27.674Z,60.75
2018-05-08T03:04:28.237Z,59.79
2018-05-08T03:04:28.839Z,60.17
2018-05-08T03:04:29.436Z,59.89
2018-05-08T03:04:30.036Z,59.99
2018-05-08T03:04:30.637Z,59.70
2018-05-08T03:04:31.236Z,59.89
2018-05-08T03:04:31.837Z,60.08
2018-05-08T03:05:25.394Z,59.31
2018-05-08T03:05:25.994Z,59.51
2018-05-08T03:05:26.592Z,59.31
2018-05-08T03:05:27.191Z,59.12
2018-05-08T03:05:27.794Z,58.94
2018-05-08T03:05:28.458Z,59.12
2018-05-08T03:05:28.991Z,59.12
2018-05-08T03:05:29.591Z,59.12
2018-05-08T03:06:24.069Z,58.84
2018-05-08T03:06:24.667Z,58.75
2018-05-08T03:06:25.274Z,58.84
2018-05-08T03:06:25.865Z,58.94
2018-05-08T03:06:26.467Z,58.84
2018-05-08T03:06:27.063Z,58.65
2018-05-08T03:06:27.668Z,58.84
2018-05-08T03:06:28.264Z,58.65
2018-05-08T03:07:22.744Z,59.89
2018-05-08T03:07:23.345Z,59.99
2018-05-08T03:07:23.945Z,59.99
2018-05-08T03:07:24.545Z,59.99
2018-05-08T03:07:25.144Z,59.89
2018-05-08T03:07:25.749Z,59.89
2018-05-08T03:07:26.344Z,59.89
2018-05-08T03:07:26.940Z,59.89
2018-05-08T03:08:20.397Z,61.70
2018-05-08T03:08:20.994Z,61.60
2018-05-08T03:08:21.593Z,61.51
2018-05-08T03:08:22.197Z,61.63
2018-05-08T03:08:22.795Z,62.27
2018-05-08T03:08:23.396Z,62.08
2018-05-08T03:08:23.997Z,62.27
2018-05-08T03:08:24.594Z,62.08
2018-05-08T03:09:19.072Z,60.55
2018-05-08T03:09:19.668Z,60.55
2018-05-08T03:09:20.268Z,60.17
2018-05-08T03:09:20.869Z,60.55
2018-05-08T03:09:21.468Z,60.65
2018-05-08T03:09:22.067Z,60.65
2018-05-08T03:09:22.671Z,60.36
2018-05-08T03:09:23.272Z,60.55
2018-05-08T03:10:16.751Z,61.51
2018-05-08T03:10:17.322Z,60.94
2018-05-08T03:10:17.924Z,61.51
2018-05-08T03:10:18.521Z,60.94
2018-05-08T03:10:19.121Z,61.32
2018-05-08T03:10:19.721Z,61.41
2018-05-08T03:10:20.324Z,61.32
2018-05-08T03:10:20.922Z,61.22
2018-05-08T03:11:15.399Z,61.89
2018-05-08T03:11:15.997Z,62.18
2018-05-08T03:11:16.600Z,62.08
2018-05-08T03:11:17.196Z,61.89
2018-05-08T03:11:17.796Z,61.89
2018-05-08T03:11:18.396Z,62.18
2018-05-08T03:11:18.998Z,61.99
2018-05-08T03:11:19.596Z,62.08
2018-05-08T03:12:14.077Z,61.41
2018-05-08T03:12:14.672Z,61.99
2018-05-08T03:12:15.275Z,62.30
2018-05-08T03:12:15.873Z,61.89
2018-05-08T03:12:16.472Z,61.99
2018-05-08T03:12:17.076Z,61.89
2018-05-08T03:12:17.676Z,61.99
2018-05-08T03:12:18.271Z,61.99
2018-05-08T03:29:26.298Z,61.70
2018-05-08T03:29:26.869Z,61.51
2018-05-08T03:29:27.472Z,61.60
2018-05-08T03:29:28.069Z,61.60
2018-05-08T03:29:28.667Z,61.51
2018-05-08T03:29:29.268Z,61.70
2018-05-08T03:29:29.870Z,61.51
2018-05-08T03:29:30.468Z,61.70
2018-05-08T03:30:24.979Z,62.62
2018-05-08T03:30:25.545Z,62.56
2018-05-08T03:30:26.158Z,62.65
2018-05-08T03:30:26.742Z,62.65
2018-05-08T03:30:27.346Z,62.56
2018-05-08T03:30:27.947Z,62.75
2018-05-08T03:30:28.541Z,62.75
2018-05-08T03:30:29.146Z,62.84
2018-05-08T03:31:22.602Z,61.67
2018-05-08T03:31:23.197Z,61.70
2018-05-08T03:31:23.801Z,61.51
2018-05-08T03:31:24.395Z,61.51
2018-05-08T03:31:24.996Z,61.38
2018-05-08T03:31:25.597Z,61.80
2018-05-08T03:31:26.196Z,62.05
2018-05-08T03:31:26.795Z,62.08
2018-05-08T03:32:20.251Z,62.24
2018-05-08T03:32:20.849Z,62.24
2018-05-08T03:32:21.450Z,62.05
2018-05-08T03:32:22.049Z,61.76
2018-05-08T03:32:22.649Z,62.15
2018-05-08T03:32:23.250Z,61.96
2018-05-08T03:32:23.851Z,61.86
2018-05-08T03:32:24.452Z,62.15
2018-05-08T03:33:17.905Z,61.57
2018-05-08T03:33:18.502Z,61.57
2018-05-08T03:33:19.101Z,61.38
2018-05-08T03:33:19.702Z,61.48
2018-05-08T03:33:20.302Z,61.57
2018-05-08T03:33:20.901Z,61.57
2018-05-08T03:33:21.503Z,61.48
2018-05-08T03:33:22.101Z,61.48
2018-05-08T03:34:16.581Z,61.38
2018-05-08T03:34:17.177Z,61.29
2018-05-08T03:34:17.778Z,61.00
2018-05-08T03:34:18.377Z,61.10
2018-05-08T03:34:18.975Z,60.72
2018-05-08T03:34:19.576Z,61.10
2018-05-08T03:34:20.177Z,61.10
2018-05-08T03:34:20.775Z,61.10
2018-05-08T03:35:14.268Z,60.33
2018-05-08T03:35:14.832Z,60.72
2018-05-08T03:35:15.429Z,60.72
2018-05-08T03:35:16.029Z,60.52
2018-05-08T03:35:16.627Z,60.52
2018-05-08T03:35:17.232Z,60.24
2018-05-08T03:35:17.830Z,60.33
2018-05-08T03:35:18.430Z,60.52
2018-05-08T03:36:11.885Z,59.86
2018-05-08T03:36:12.482Z,59.86
2018-05-08T03:36:13.083Z,59.67
2018-05-08T03:36:13.683Z,60.05
2018-05-08T03:36:14.283Z,59.76
2018-05-08T03:36:14.881Z,59.48
2018-05-08T03:36:15.480Z,59.76
2018-05-08T03:36:16.083Z,59.76
2018-05-08T03:37:09.536Z,58.72
2018-05-08T03:37:10.134Z,58.72
2018-05-08T03:37:10.732Z,58.62
2018-05-08T03:37:11.333Z,58.81
2018-05-08T03:37:11.934Z,58.91
2018-05-08T03:37:12.532Z,58.72
2018-05-08T03:37:13.133Z,58.72
2018-05-08T03:37:13.734Z,58.81
2018-05-08T03:38:07.187Z,56.52
2018-05-08T03:38:07.784Z,56.52
2018-05-08T03:38:08.386Z,56.04
2018-05-08T03:38:08.984Z,56.33
2018-05-08T03:38:09.584Z,56.52
2018-05-08T03:38:10.184Z,56.43
2018-05-08T03:38:10.784Z,56.33
2018-05-08T03:38:11.384Z,56.52
2018-05-08T03:39:04.840Z,57.38
2018-05-08T03:39:05.437Z,57.38
2018-05-08T03:39:06.035Z,57.19
2018-05-08T03:39:06.636Z,57.28
2018-05-08T03:39:07.250Z,57.48
2018-05-08T03:39:07.836Z,57.57
2018-05-08T03:39:08.437Z,57.86
2018-05-08T03:39:09.035Z,57.57
2018-05-08T03:40:03.516Z,57.38
2018-05-08T03:40:04.112Z,57.57
2018-05-08T03:40:04.711Z,57.57
2018-05-08T03:40:05.311Z,57.38
2018-05-08T03:40:05.911Z,57.28
2018-05-08T03:40:06.514Z,57.48
2018-05-08T03:40:07.112Z,57.86
2018-05-08T03:40:07.716Z,57.86
2018-05-08T03:41:01.195Z,57.48
2018-05-08T03:41:01.770Z,57.57
2018-05-08T03:41:02.365Z,57.28
2018-05-08T03:41:02.963Z,57.19
2018-05-08T03:41:03.564Z,57.38
2018-05-08T03:41:04.164Z,57.67
2018-05-08T03:41:04.764Z,57.38
2018-05-08T03:41:05.366Z,57.48
2018-05-08T03:41:58.821Z,56.90
2018-05-08T03:41:59.420Z,56.24
2018-05-08T03:42:00.016Z,57.00
2018-05-08T03:42:00.616Z,56.90
2018-05-08T03:42:01.216Z,56.90
2018-05-08T03:42:01.815Z,56.52
2018-05-08T03:42:02.416Z,56.52
2018-05-08T03:42:03.014Z,56.71
2018-05-08T03:42:57.495Z,56.62
2018-05-08T03:42:58.091Z,56.52
2018-05-08T03:42:58.690Z,56.65
2018-05-08T03:42:59.292Z,56.33
2018-05-08T03:42:59.890Z,56.43
2018-05-08T03:43:00.490Z,56.43
2018-05-08T03:43:01.090Z,56.43
2018-05-08T03:43:01.690Z,56.43
2018-05-08T03:43:55.147Z,55.79
2018-05-08T03:43:55.747Z,56.17
2018-05-08T03:43:56.344Z,56.24
2018-05-08T03:43:56.945Z,56.24
2018-05-08T03:43:57.544Z,56.17
2018-05-08T03:43:58.143Z,55.95
2018-05-08T03:43:58.743Z,56.14
2018-05-08T03:43:59.342Z,56.07
2018-05-08T03:44:53.823Z,57.89
2018-05-08T03:44:54.418Z,57.89
2018-05-08T03:44:55.021Z,57.98
2018-05-08T03:44:55.622Z,58.07
2018-05-08T03:44:56.219Z,57.98
2018-05-08T03:44:56.818Z,57.89
2018-05-08T03:44:57.417Z,57.76
2018-05-08T03:44:58.018Z,57.60
2018-05-08T03:45:51.476Z,58.94
2018-05-08T03:45:52.073Z,58.84
2018-05-08T03:45:52.671Z,58.75
2018-05-08T03:45:53.271Z,58.84
2018-05-08T03:45:53.870Z,58.94
2018-05-08T03:45:54.472Z,58.84
2018-05-08T03:45:55.071Z,58.84
2018-05-08T03:45:55.670Z,58.84
2018-05-08T03:46:49.160Z,61.22
2018-05-08T03:46:49.727Z,61.41
2018-05-08T03:46:50.323Z,61.13
2018-05-08T03:46:50.922Z,61.22
2018-05-08T03:46:51.522Z,61.13
2018-05-08T03:46:52.127Z,61.32
2018-05-08T03:46:52.724Z,60.94
2018-05-08T03:46:53.321Z,60.75
2018-05-08T03:47:46.777Z,60.84
2018-05-08T03:47:47.376Z,60.84
2018-05-08T03:47:47.974Z,60.84
2018-05-08T03:47:48.574Z,60.65
2018-05-08T03:47:49.176Z,60.65
2018-05-08T03:47:49.775Z,60.84
2018-05-08T03:47:50.374Z,60.55
2018-05-08T03:47:50.973Z,60.94
2018-05-08T03:48:44.538Z,58.46
2018-05-08T03:48:45.130Z,58.46
2018-05-08T03:48:45.728Z,58.46
2018-05-08T03:48:46.329Z,58.26
2018-05-08T03:48:46.928Z,58.26
2018-05-08T03:48:47.526Z,58.26
2018-05-08T03:48:48.128Z,58.26
2018-05-08T03:48:48.728Z,58.26
2018-05-08T03:49:43.209Z,57.70
2018-05-08T03:49:43.806Z,57.50
2018-05-08T03:49:44.405Z,57.50
2018-05-08T03:49:45.004Z,57.60
2018-05-08T03:49:45.603Z,57.60
2018-05-08T03:49:46.207Z,57.89
2018-05-08T03:49:46.804Z,57.60
2018-05-08T03:49:47.401Z,57.50
2018-05-08T03:50:41.890Z,57.60
2018-05-08T03:50:42.482Z,57.22
2018-05-08T03:50:43.078Z,57.50
2018-05-08T03:50:43.679Z,57.60
2018-05-08T03:50:44.279Z,57.12
2018-05-08T03:50:44.882Z,57.50
2018-05-08T03:50:45.478Z,57.12
2018-05-08T03:50:46.079Z,57.60
2018-05-08T03:51:40.560Z,59.51
2018-05-08T03:51:41.162Z,59.41
2018-05-08T03:51:41.755Z,59.79
2018-05-08T03:51:42.357Z,59.79
2018-05-08T03:51:42.955Z,59.99
2018-05-08T03:51:43.556Z,59.79
2018-05-08T03:51:44.155Z,59.89
2018-05-08T03:51:44.754Z,59.60
2018-05-08T03:52:39.269Z,58.84
2018-05-08T03:52:39.832Z,58.84
2018-05-08T03:52:40.429Z,58.75
2018-05-08T03:52:41.030Z,58.46
2018-05-08T03:52:41.630Z,58.75
2018-05-08T03:52:42.255Z,58.84
2018-05-08T03:52:42.831Z,58.84
2018-05-08T03:52:43.431Z,58.84
2018-05-08T03:53:37.911Z,58.65
2018-05-08T03:53:38.507Z,58.75
2018-05-08T03:53:39.106Z,58.75
2018-05-08T03:53:39.708Z,58.84
2018-05-08T03:53:40.306Z,58.84
2018-05-08T03:53:40.910Z,58.75
2018-05-08T03:53:41.506Z,58.84
2018-05-08T03:53:42.161Z,58.84
2018-05-08T03:54:36.587Z,59.73
2018-05-08T03:54:37.183Z,59.92
2018-05-08T03:54:37.781Z,59.63
2018-05-08T03:54:38.383Z,60.21
2018-05-08T03:54:38.984Z,59.70
2018-05-08T03:54:39.582Z,59.92
2018-05-08T03:54:40.180Z,59.89
2018-05-08T03:54:40.781Z,60.11
2018-05-08T03:55:35.261Z,61.25
2018-05-08T03:55:35.859Z,61.16
2018-05-08T03:55:36.459Z,61.16
2018-05-08T03:55:37.058Z,61.16
2018-05-08T03:55:37.658Z,61.16
2018-05-08T03:55:38.261Z,61.25
2018-05-08T03:55:38.857Z,60.97
2018-05-08T03:55:39.457Z,60.97
2018-05-08T03:56:33.938Z,60.87
2018-05-08T03:56:34.535Z,60.87
2018-05-08T03:56:35.134Z,60.49
2018-05-08T03:56:35.736Z,60.68
2018-05-08T03:56:36.335Z,60.49
2018-05-08T03:56:36.933Z,60.78
2018-05-08T03:56:37.534Z,60.49
2018-05-08T03:56:38.134Z,60.87
2018-05-08T03:57:46.266Z,62.78
2018-05-08T03:57:46.830Z,62.88
2018-05-08T03:58:41.328Z,62.78
2018-05-08T03:58:41.923Z,62.68
2018-05-08T03:58:42.521Z,62.59
2018-05-08T03:58:43.119Z,62.88
2018-05-08T03:58:43.720Z,62.97
2018-05-08T03:58:44.320Z,62.59
2018-05-08T03:58:44.921Z,62.68
2018-05-08T03:58:45.520Z,62.88
2018-05-08T03:59:39.999Z,64.21
2018-05-08T03:59:40.597Z,64.12
2018-05-08T03:59:41.196Z,64.21
2018-05-08T03:59:41.796Z,64.02
2018-05-08T03:59:42.398Z,64.40
2018-05-08T03:59:42.996Z,64.69
2018-05-08T03:59:43.597Z,64.69
2018-05-08T03:59:44.196Z,64.50
2018-05-08T04:00:38.675Z,65.36
2018-05-08T04:00:39.271Z,65.36
2018-05-08T04:00:39.871Z,65.36
2018-05-08T04:00:40.472Z,65.36
2018-05-08T04:00:41.072Z,65.36
2018-05-08T04:00:41.671Z,65.45
2018-05-08T04:00:42.273Z,65.45
2018-05-08T04:00:42.871Z,65.55
2018-05-08T04:01:36.328Z,65.74
2018-05-08T04:01:36.927Z,65.74
2018-05-08T04:01:37.529Z,65.83
2018-05-08T04:01:38.124Z,65.55
2018-05-08T04:01:38.724Z,65.83
2018-05-08T04:01:39.324Z,66.02
2018-05-08T04:01:39.939Z,65.36
2018-05-08T04:01:40.522Z,66.12
2018-05-08T04:02:35.003Z,66.12
2018-05-08T04:02:35.599Z,66.12
2018-05-08T04:02:36.198Z,66.12
2018-05-08T04:02:36.798Z,66.15
2018-05-08T04:02:37.400Z,66.22
2018-05-08T04:02:37.999Z,65.87
2018-05-08T04:02:38.602Z,66.15
2018-05-08T04:02:39.199Z,66.02
2018-05-08T04:03:33.705Z,67.83
2018-05-08T04:03:34.276Z,67.83
2018-05-08T04:03:34.875Z,67.83
2018-05-08T04:03:35.476Z,68.03
2018-05-08T04:03:36.074Z,68.03
2018-05-08T04:03:36.680Z,67.30
2018-05-08T04:03:37.277Z,67.27
2018-05-08T04:03:37.876Z,67.36
2018-05-08T04:04:33.889Z,66.88
2018-05-08T04:04:34.488Z,66.82
2018-05-08T04:04:35.089Z,66.63
2018-05-08T04:04:35.687Z,66.69
2018-05-08T04:04:36.286Z,66.88
2018-05-08T04:04:36.890Z,66.88
2018-05-08T04:05:30.929Z,67.21
2018-05-08T04:05:31.525Z,67.40
2018-05-08T04:05:32.126Z,67.40
2018-05-08T04:05:32.728Z,67.40
2018-05-08T04:05:33.325Z,67.68
2018-05-08T04:05:33.926Z,67.49
2018-05-08T04:05:34.525Z,67.30
2018-05-08T04:05:35.124Z,67.30
2018-05-08T04:06:28.584Z,66.92
2018-05-08T04:06:29.178Z,66.72
2018-05-08T04:06:29.776Z,66.44
2018-05-08T04:06:30.378Z,66.63
2018-05-08T04:06:30.977Z,66.72
2018-05-08T04:06:31.577Z,66.72
2018-05-08T04:06:32.178Z,66.72
2018-05-08T04:06:32.776Z,66.92
2018-05-08T04:07:26.744Z,67.21
2018-05-08T04:07:27.340Z,67.68
2018-05-08T04:07:27.941Z,67.30
2018-05-08T04:07:28.541Z,67.58
2018-05-08T04:07:29.139Z,67.68
2018-05-08T04:07:29.739Z,67.49
2018-05-08T04:07:30.345Z,67.49
2018-05-08T04:08:23.906Z,68.26
2018-05-08T04:08:24.547Z,68.26